sensor_id;sensor_type;location;lat;lon;timestamp;temperature;humidity
25871;DHT22;13689;48.590;7.752;2024-03-08T00:00:34;6.90;79.30
25871;DHT22;13689;48.590;7.752;2024-03-08T00:03:00;6.80;79.40
25871;DHT22;13689;48.590;7.752;2024-03-08T00:05:27;6.80;79.40
25871;DHT22;13689;48.590;7.752;2024-03-08T00:07:53;6.70;79.50
25871;DHT22;13689;48.590;7.752;2024-03-08T00:10:18;6.70;79.80
25871;DHT22;13689;48.590;7.752;2024-03-08T00:12:46;6.70;79.90
25871;DHT22;13689;48.590;7.752;2024-03-08T00:15:16;6.60;79.90
25871;DHT22;13689;48.590;7.752;2024-03-08T00:17:43;6.60;80.20
25871;DHT22;13689;48.590;7.752;2024-03-08T00:20:09;6.60;80.10
25871;DHT22;13689;48.590;7.752;2024-03-08T00:22:36;6.60;80.40
25871;DHT22;13689;48.590;7.752;2024-03-08T00:25:02;6.60;80.40
25871;DHT22;13689;48.590;7.752;2024-03-08T00:27:31;6.60;81.30
25871;DHT22;13689;48.590;7.752;2024-03-08T00:29:57;6.50;80.50
25871;DHT22;13689;48.590;7.752;2024-03-08T00:32:23;6.60;80.60
25871;DHT22;13689;48.590;7.752;2024-03-08T00:34:53;6.60;80.50
25871;DHT22;13689;48.590;7.752;2024-03-08T00:37:20;6.50;80.50
25871;DHT22;13689;48.590;7.752;2024-03-08T00:39:47;6.50;81.40
25871;DHT22;13689;48.590;7.752;2024-03-08T00:42:14;6.60;80.70
25871;DHT22;13689;48.590;7.752;2024-03-08T00:44:40;6.50;80.60
25871;DHT22;13689;48.590;7.752;2024-03-08T00:47:06;6.50;80.70
25871;DHT22;13689;48.590;7.752;2024-03-08T00:49:31;6.50;80.80
25871;DHT22;13689;48.590;7.752;2024-03-08T00:51:57;6.50;80.90
25871;DHT22;13689;48.590;7.752;2024-03-08T00:54:23;6.50;80.90
25871;DHT22;13689;48.590;7.752;2024-03-08T00:56:48;6.50;80.70
25871;DHT22;13689;48.590;7.752;2024-03-08T00:59:14;6.50;80.80
25871;DHT22;13689;48.590;7.752;2024-03-08T01:01:40;6.50;80.80
25871;DHT22;13689;48.590;7.752;2024-03-08T01:04:06;6.40;80.80
25871;DHT22;13689;48.590;7.752;2024-03-08T01:06:33;6.40;81.10
25871;DHT22;13689;48.590;7.752;2024-03-08T01:08:59;6.40;81.30
25871;DHT22;13689;48.590;7.752;2024-03-08T01:11:24;6.40;81.50
25871;DHT22;13689;48.590;7.752;2024-03-08T01:13:50;6.40;81.30
25871;DHT22;13689;48.590;7.752;2024-03-08T01:16:16;6.40;81.30
25871;DHT22;13689;48.590;7.752;2024-03-08T01:18:46;6.40;81.30
25871;DHT22;13689;48.590;7.752;2024-03-08T01:21:12;6.40;81.50
25871;DHT22;13689;48.590;7.752;2024-03-08T01:23:38;6.30;81.40
25871;DHT22;13689;48.590;7.752;2024-03-08T01:26:04;6.30;81.40
25871;DHT22;13689;48.590;7.752;2024-03-08T01:28:30;6.30;81.70
25871;DHT22;13689;48.590;7.752;2024-03-08T01:30:55;6.30;81.80
25871;DHT22;13689;48.590;7.752;2024-03-08T01:33:23;6.30;81.90
25871;DHT22;13689;48.590;7.752;2024-03-08T01:35:49;6.20;81.80
25871;DHT22;13689;48.590;7.752;2024-03-08T01:38:14;6.10;81.90
25871;DHT22;13689;48.590;7.752;2024-03-08T01:40:41;6.10;82.30
25871;DHT22;13689;48.590;7.752;2024-03-08T01:43:26;6.10;82.60
25871;DHT22;13689;48.590;7.752;2024-03-08T01:45:57;6.10;82.50
25871;DHT22;13689;48.590;7.752;2024-03-08T01:48:24;6.10;82.50
25871;DHT22;13689;48.590;7.752;2024-03-08T01:50:50;6.10;82.70
25871;DHT22;13689;48.590;7.752;2024-03-08T01:53:18;6.10;82.80
25871;DHT22;13689;48.590;7.752;2024-03-08T01:55:47;6.10;82.90
25871;DHT22;13689;48.590;7.752;2024-03-08T01:58:14;6.00;82.80
25871;DHT22;13689;48.590;7.752;2024-03-08T02:00:44;6.00;82.80
25871;DHT22;13689;48.590;7.752;2024-03-08T02:03:12;6.00;82.90
25871;DHT22;13689;48.590;7.752;2024-03-08T02:05:40;6.10;83.00
25871;DHT22;13689;48.590;7.752;2024-03-08T02:08:06;6.10;82.80
25871;DHT22;13689;48.590;7.752;2024-03-08T02:10:33;6.20;82.80
25871;DHT22;13689;48.590;7.752;2024-03-08T02:13:02;6.20;82.60
25871;DHT22;13689;48.590;7.752;2024-03-08T02:18:15;6.10;82.60
25871;DHT22;13689;48.590;7.752;2024-03-08T02:20:42;6.10;82.50
25871;DHT22;13689;48.590;7.752;2024-03-08T02:23:08;6.10;82.60
25871;DHT22;13689;48.590;7.752;2024-03-08T02:25:35;6.10;82.70
25871;DHT22;13689;48.590;7.752;2024-03-08T02:28:00;6.10;82.70
25871;DHT22;13689;48.590;7.752;2024-03-08T02:30:26;6.10;82.70
25871;DHT22;13689;48.590;7.752;2024-03-08T02:32:55;6.10;82.80
25871;DHT22;13689;48.590;7.752;2024-03-08T02:35:21;6.10;83.00
25871;DHT22;13689;48.590;7.752;2024-03-08T02:37:46;6.10;83.00
25871;DHT22;13689;48.590;7.752;2024-03-08T02:40:13;6.10;83.00
25871;DHT22;13689;48.590;7.752;2024-03-08T02:42:39;6.10;83.00
25871;DHT22;13689;48.590;7.752;2024-03-08T02:45:05;6.00;82.90
25871;DHT22;13689;48.590;7.752;2024-03-08T02:47:31;6.00;83.00
25871;DHT22;13689;48.590;7.752;2024-03-08T02:49:57;6.00;83.00
25871;DHT22;13689;48.590;7.752;2024-03-08T02:52:23;6.00;83.00
25871;DHT22;13689;48.590;7.752;2024-03-08T02:54:48;6.00;83.00
25871;DHT22;13689;48.590;7.752;2024-03-08T02:57:15;6.00;83.10
25871;DHT22;13689;48.590;7.752;2024-03-08T02:59:41;5.90;83.10
25871;DHT22;13689;48.590;7.752;2024-03-08T03:02:07;5.90;83.20
25871;DHT22;13689;48.590;7.752;2024-03-08T03:04:33;5.80;83.10
25871;DHT22;13689;48.590;7.752;2024-03-08T03:07:00;5.80;83.40
25871;DHT22;13689;48.590;7.752;2024-03-08T03:09:26;5.80;83.50
25871;DHT22;13689;48.590;7.752;2024-03-08T03:11:55;5.80;83.60
25871;DHT22;13689;48.590;7.752;2024-03-08T03:14:22;5.80;83.50
25871;DHT22;13689;48.590;7.752;2024-03-08T03:16:47;5.70;83.40
25871;DHT22;13689;48.590;7.752;2024-03-08T03:19:13;5.60;83.50
25871;DHT22;13689;48.590;7.752;2024-03-08T03:21:40;5.60;83.80
25871;DHT22;13689;48.590;7.752;2024-03-08T03:24:08;5.50;84.00
25871;DHT22;13689;48.590;7.752;2024-03-08T03:26:37;5.60;84.30
25871;DHT22;13689;48.590;7.752;2024-03-08T03:29:06;5.60;84.20
25871;DHT22;13689;48.590;7.752;2024-03-08T03:31:34;5.60;84.10
25871;DHT22;13689;48.590;7.752;2024-03-08T03:34:00;5.70;84.10
25871;DHT22;13689;48.590;7.752;2024-03-08T03:36:28;5.70;84.00
25871;DHT22;13689;48.590;7.752;2024-03-08T03:38:55;5.70;83.90
25871;DHT22;13689;48.590;7.752;2024-03-08T03:41:37;5.70;83.90
25871;DHT22;13689;48.590;7.752;2024-03-08T03:44:04;5.70;83.90
25871;DHT22;13689;48.590;7.752;2024-03-08T03:46:31;5.60;83.80
25871;DHT22;13689;48.590;7.752;2024-03-08T03:48:56;5.60;83.90
25871;DHT22;13689;48.590;7.752;2024-03-08T03:51:22;5.60;83.90
25871;DHT22;13689;48.590;7.752;2024-03-08T03:53:48;5.60;84.00
25871;DHT22;13689;48.590;7.752;2024-03-08T03:56:13;5.60;84.00
25871;DHT22;13689;48.590;7.752;2024-03-08T03:58:39;5.60;84.00
25871;DHT22;13689;48.590;7.752;2024-03-08T04:01:05;5.50;84.00
25871;DHT22;13689;48.590;7.752;2024-03-08T04:03:31;5.50;84.10
25871;DHT22;13689;48.590;7.752;2024-03-08T04:05:56;5.50;84.30
25871;DHT22;13689;48.590;7.752;2024-03-08T04:08:22;5.50;84.30
25871;DHT22;13689;48.590;7.752;2024-03-08T04:10:50;5.50;84.30
25871;DHT22;13689;48.590;7.752;2024-03-08T04:13:16;5.50;84.30
25871;DHT22;13689;48.590;7.752;2024-03-08T04:15:42;5.50;84.30
25871;DHT22;13689;48.590;7.752;2024-03-08T04:18:09;5.50;84.40
25871;DHT22;13689;48.590;7.752;2024-03-08T04:20:35;5.40;84.30
25871;DHT22;13689;48.590;7.752;2024-03-08T04:23:02;5.40;84.40
25871;DHT22;13689;48.590;7.752;2024-03-08T04:25:28;5.40;84.30
25871;DHT22;13689;48.590;7.752;2024-03-08T04:27:54;5.40;84.50
25871;DHT22;13689;48.590;7.752;2024-03-08T04:30:19;5.30;84.30
25871;DHT22;13689;48.590;7.752;2024-03-08T04:32:46;5.30;84.60
25871;DHT22;13689;48.590;7.752;2024-03-08T04:35:12;5.30;84.60
25871;DHT22;13689;48.590;7.752;2024-03-08T04:37:38;5.30;84.50
25871;DHT22;13689;48.590;7.752;2024-03-08T04:40:05;5.30;84.60
25871;DHT22;13689;48.590;7.752;2024-03-08T04:42:31;5.20;84.70
25871;DHT22;13689;48.590;7.752;2024-03-08T04:45:00;5.30;84.80
25871;DHT22;13689;48.590;7.752;2024-03-08T04:47:26;5.30;84.90
25871;DHT22;13689;48.590;7.752;2024-03-08T04:49:51;5.20;84.70
25871;DHT22;13689;48.590;7.752;2024-03-08T04:52:17;5.20;84.80
25871;DHT22;13689;48.590;7.752;2024-03-08T04:54:43;5.20;84.90
25871;DHT22;13689;48.590;7.752;2024-03-08T04:57:10;5.20;84.90
25871;DHT22;13689;48.590;7.752;2024-03-08T04:59:36;5.10;84.80
25871;DHT22;13689;48.590;7.752;2024-03-08T05:02:02;5.10;85.00
25871;DHT22;13689;48.590;7.752;2024-03-08T05:04:27;5.10;85.00
25871;DHT22;13689;48.590;7.752;2024-03-08T05:06:54;5.10;85.20
25871;DHT22;13689;48.590;7.752;2024-03-08T05:09:20;5.10;85.10
25871;DHT22;13689;48.590;7.752;2024-03-08T05:11:46;5.10;85.00
25871;DHT22;13689;48.590;7.752;2024-03-08T05:14:13;5.10;85.10
25871;DHT22;13689;48.590;7.752;2024-03-08T05:16:46;5.00;85.10
25871;DHT22;13689;48.590;7.752;2024-03-08T05:19:16;5.00;85.10
25871;DHT22;13689;48.590;7.752;2024-03-08T05:21:45;5.00;85.10
25871;DHT22;13689;48.590;7.752;2024-03-08T05:24:11;5.00;85.20
25871;DHT22;13689;48.590;7.752;2024-03-08T05:26:37;5.00;85.20
25871;DHT22;13689;48.590;7.752;2024-03-08T05:29:05;4.90;84.90
25871;DHT22;13689;48.590;7.752;2024-03-08T05:31:48;4.90;85.30
25871;DHT22;13689;48.590;7.752;2024-03-08T05:34:15;4.90;85.60
25871;DHT22;13689;48.590;7.752;2024-03-08T05:36:42;4.90;85.60
25871;DHT22;13689;48.590;7.752;2024-03-08T05:39:12;4.90;85.50
25871;DHT22;13689;48.590;7.752;2024-03-08T05:41:39;4.90;85.30
25871;DHT22;13689;48.590;7.752;2024-03-08T05:44:06;4.80;85.20
25871;DHT22;13689;48.590;7.752;2024-03-08T05:46:31;4.80;85.50
25871;DHT22;13689;48.590;7.752;2024-03-08T05:48:57;4.80;85.70
25871;DHT22;13689;48.590;7.752;2024-03-08T05:51:24;4.80;85.60
25871;DHT22;13689;48.590;7.752;2024-03-08T05:53:53;4.80;85.60
25871;DHT22;13689;48.590;7.752;2024-03-08T05:56:19;4.80;85.60
25871;DHT22;13689;48.590;7.752;2024-03-08T05:58:44;4.80;85.60
25871;DHT22;13689;48.590;7.752;2024-03-08T06:01:11;4.80;85.50
25871;DHT22;13689;48.590;7.752;2024-03-08T06:03:38;4.80;85.70
25871;DHT22;13689;48.590;7.752;2024-03-08T06:06:12;4.80;85.70
25871;DHT22;13689;48.590;7.752;2024-03-08T06:08:38;4.80;85.60
25871;DHT22;13689;48.590;7.752;2024-03-08T06:11:04;4.80;85.70
25871;DHT22;13689;48.590;7.752;2024-03-08T06:13:32;4.80;86.20
25871;DHT22;13689;48.590;7.752;2024-03-08T06:15:57;4.80;85.40
25871;DHT22;13689;48.590;7.752;2024-03-08T06:18:23;4.70;85.40
25871;DHT22;13689;48.590;7.752;2024-03-08T06:20:48;4.80;85.60
25871;DHT22;13689;48.590;7.752;2024-03-08T06:23:14;4.70;85.40
25871;DHT22;13689;48.590;7.752;2024-03-08T06:25:44;4.80;85.70
25871;DHT22;13689;48.590;7.752;2024-03-08T06:28:10;4.80;85.70
25871;DHT22;13689;48.590;7.752;2024-03-08T06:30:35;4.80;85.60
25871;DHT22;13689;48.590;7.752;2024-03-08T06:33:01;4.80;85.50
25871;DHT22;13689;48.590;7.752;2024-03-08T06:35:27;4.90;85.60
25871;DHT22;13689;48.590;7.752;2024-03-08T06:37:53;4.80;85.40
25871;DHT22;13689;48.590;7.752;2024-03-08T06:40:18;4.80;85.50
25871;DHT22;13689;48.590;7.752;2024-03-08T06:42:44;4.80;85.70
25871;DHT22;13689;48.590;7.752;2024-03-08T06:45:10;4.80;85.70
25871;DHT22;13689;48.590;7.752;2024-03-08T06:47:37;4.80;85.80
25871;DHT22;13689;48.590;7.752;2024-03-08T06:50:03;4.90;86.00
25871;DHT22;13689;48.590;7.752;2024-03-08T06:52:29;4.90;85.60
25871;DHT22;13689;48.590;7.752;2024-03-08T06:54:55;4.90;85.60
25871;DHT22;13689;48.590;7.752;2024-03-08T06:57:22;4.90;85.80
25871;DHT22;13689;48.590;7.752;2024-03-08T06:59:48;5.00;85.80
25871;DHT22;13689;48.590;7.752;2024-03-08T07:02:14;5.20;86.10
25871;DHT22;13689;48.590;7.752;2024-03-08T07:04:40;5.50;86.00
25871;DHT22;13689;48.590;7.752;2024-03-08T07:07:06;5.90;85.70
25871;DHT22;13689;48.590;7.752;2024-03-08T07:09:36;6.30;85.00
25871;DHT22;13689;48.590;7.752;2024-03-08T07:12:02;6.30;84.20
25871;DHT22;13689;48.590;7.752;2024-03-08T07:14:27;6.20;83.90
25871;DHT22;13689;48.590;7.752;2024-03-08T07:16:54;6.10;84.10
25871;DHT22;13689;48.590;7.752;2024-03-08T07:19:19;6.00;84.50
25871;DHT22;13689;48.590;7.752;2024-03-08T07:21:47;5.90;84.40
25871;DHT22;13689;48.590;7.752;2024-03-08T07:24:13;5.80;84.30
25871;DHT22;13689;48.590;7.752;2024-03-08T07:26:42;5.60;84.10
25871;DHT22;13689;48.590;7.752;2024-03-08T07:29:08;5.60;84.50
25871;DHT22;13689;48.590;7.752;2024-03-08T07:31:34;5.60;84.50
25871;DHT22;13689;48.590;7.752;2024-03-08T07:34:02;5.60;84.80
25871;DHT22;13689;48.590;7.752;2024-03-08T07:36:29;5.60;85.00
25871;DHT22;13689;48.590;7.752;2024-03-08T07:38:54;5.60;84.70
25871;DHT22;13689;48.590;7.752;2024-03-08T07:41:20;5.60;84.50
25871;DHT22;13689;48.590;7.752;2024-03-08T07:43:46;5.60;84.50
25871;DHT22;13689;48.590;7.752;2024-03-08T07:46:11;5.60;84.70
25871;DHT22;13689;48.590;7.752;2024-03-08T07:48:38;5.70;84.90
25871;DHT22;13689;48.590;7.752;2024-03-08T07:51:05;5.80;84.50
25871;DHT22;13689;48.590;7.752;2024-03-08T07:53:31;5.70;83.90
25871;DHT22;13689;48.590;7.752;2024-03-08T07:55:56;5.70;84.20
25871;DHT22;13689;48.590;7.752;2024-03-08T07:58:22;5.60;84.10
25871;DHT22;13689;48.590;7.752;2024-03-08T08:00:49;5.60;84.00
25871;DHT22;13689;48.590;7.752;2024-03-08T08:03:15;5.60;84.10
25871;DHT22;13689;48.590;7.752;2024-03-08T08:05:41;5.60;84.40
25871;DHT22;13689;48.590;7.752;2024-03-08T08:08:10;5.70;84.50
25871;DHT22;13689;48.590;7.752;2024-03-08T08:10:36;5.80;84.60
25871;DHT22;13689;48.590;7.752;2024-03-08T08:13:03;5.80;84.10
25871;DHT22;13689;48.590;7.752;2024-03-08T08:15:30;5.90;84.30
25871;DHT22;13689;48.590;7.752;2024-03-08T08:17:55;6.00;84.10
25871;DHT22;13689;48.590;7.752;2024-03-08T08:20:21;6.10;84.20
25871;DHT22;13689;48.590;7.752;2024-03-08T08:22:48;6.20;83.90
25871;DHT22;13689;48.590;7.752;2024-03-08T08:25:14;6.20;83.70
25871;DHT22;13689;48.590;7.752;2024-03-08T08:27:41;6.30;83.40
25871;DHT22;13689;48.590;7.752;2024-03-08T08:30:08;6.30;83.10
25871;DHT22;13689;48.590;7.752;2024-03-08T08:32:35;6.40;83.00
25871;DHT22;13689;48.590;7.752;2024-03-08T08:35:05;6.50;83.00
25871;DHT22;13689;48.590;7.752;2024-03-08T08:37:31;6.70;82.60
25871;DHT22;13689;48.590;7.752;2024-03-08T08:39:57;7.60;82.60
25871;DHT22;13689;48.590;7.752;2024-03-08T08:42:24;10.10;78.10
25871;DHT22;13689;48.590;7.752;2024-03-08T08:44:50;12.00;71.50
25871;DHT22;13689;48.590;7.752;2024-03-08T08:47:17;13.30;67.90
25871;DHT22;13689;48.590;7.752;2024-03-08T08:49:44;14.20;64.60
25871;DHT22;13689;48.590;7.752;2024-03-08T08:52:12;14.40;61.00
25871;DHT22;13689;48.590;7.752;2024-03-08T08:54:37;14.70;62.20
25871;DHT22;13689;48.590;7.752;2024-03-08T08:57:03;15.00;62.30
25871;DHT22;13689;48.590;7.752;2024-03-08T08:59:33;15.40;61.90
25871;DHT22;13689;48.590;7.752;2024-03-08T09:02:01;15.30;59.70
25871;DHT22;13689;48.590;7.752;2024-03-08T09:04:27;15.30;60.90
25871;DHT22;13689;48.590;7.752;2024-03-08T09:06:54;15.40;60.40
25871;DHT22;13689;48.590;7.752;2024-03-08T09:09:20;15.10;58.50
25871;DHT22;13689;48.590;7.752;2024-03-08T09:11:47;15.00;59.50
25871;DHT22;13689;48.590;7.752;2024-03-08T09:14:12;15.30;60.80
25871;DHT22;13689;48.590;7.752;2024-03-08T09:16:39;15.60;60.30
25871;DHT22;13689;48.590;7.752;2024-03-08T09:19:05;15.50;59.30
25871;DHT22;13689;48.590;7.752;2024-03-08T09:21:36;15.20;59.10
25871;DHT22;13689;48.590;7.752;2024-03-08T09:24:02;15.10;59.50
25871;DHT22;13689;48.590;7.752;2024-03-08T09:26:28;15.10;59.10
25871;DHT22;13689;48.590;7.752;2024-03-08T09:28:54;15.00;59.60
25871;DHT22;13689;48.590;7.752;2024-03-08T09:31:22;15.00;59.70
25871;DHT22;13689;48.590;7.752;2024-03-08T09:33:48;15.30;60.10
25871;DHT22;13689;48.590;7.752;2024-03-08T09:36:14;15.70;59.80
25871;DHT22;13689;48.590;7.752;2024-03-08T09:38:40;15.90;59.20
25871;DHT22;13689;48.590;7.752;2024-03-08T09:41:06;15.80;57.40
25871;DHT22;13689;48.590;7.752;2024-03-08T09:43:31;15.70;57.80
25871;DHT22;13689;48.590;7.752;2024-03-08T09:45:58;15.70;58.50
25871;DHT22;13689;48.590;7.752;2024-03-08T09:48:24;15.80;58.30
25871;DHT22;13689;48.590;7.752;2024-03-08T09:50:51;15.90;58.20
25871;DHT22;13689;48.590;7.752;2024-03-08T09:53:17;16.00;58.40
25871;DHT22;13689;48.590;7.752;2024-03-08T09:55:42;16.10;58.20
25871;DHT22;13689;48.590;7.752;2024-03-08T09:58:11;16.20;58.00
25871;DHT22;13689;48.590;7.752;2024-03-08T10:00:47;16.20;57.30
25871;DHT22;13689;48.590;7.752;2024-03-08T10:03:13;16.10;57.20
25871;DHT22;13689;48.590;7.752;2024-03-08T10:05:42;16.10;57.50
25871;DHT22;13689;48.590;7.752;2024-03-08T10:08:08;16.30;57.30
25871;DHT22;13689;48.590;7.752;2024-03-08T10:10:35;16.30;56.10
25871;DHT22;13689;48.590;7.752;2024-03-08T10:13:01;16.30;55.90
25871;DHT22;13689;48.590;7.752;2024-03-08T10:15:27;16.10;55.40
25871;DHT22;13689;48.590;7.752;2024-03-08T10:17:58;16.20;54.30
25871;DHT22;13689;48.590;7.752;2024-03-08T10:20:24;16.20;54.70
25871;DHT22;13689;48.590;7.752;2024-03-08T10:22:52;16.70;54.80
25871;DHT22;13689;48.590;7.752;2024-03-08T10:25:19;16.90;52.70
25871;DHT22;13689;48.590;7.752;2024-03-08T10:27:45;16.60;51.20
25871;DHT22;13689;48.590;7.752;2024-03-08T10:30:14;16.80;52.60
25871;DHT22;13689;48.590;7.752;2024-03-08T10:32:41;16.90;51.90
25871;DHT22;13689;48.590;7.752;2024-03-08T10:35:09;16.60;50.90
25871;DHT22;13689;48.590;7.752;2024-03-08T10:37:46;16.50;51.40
25871;DHT22;13689;48.590;7.752;2024-03-08T10:40:19;16.70;51.90
25871;DHT22;13689;48.590;7.752;2024-03-08T10:42:58;17.00;52.30
25871;DHT22;13689;48.590;7.752;2024-03-08T10:45:36;17.10;51.60
25871;DHT22;13689;48.590;7.752;2024-03-08T10:48:47;17.20;51.10
25871;DHT22;13689;48.590;7.752;2024-03-08T10:50:49;16.50;50.00
25871;DHT22;13689;48.590;7.752;2024-03-08T10:53:18;14.90;50.50
25871;DHT22;13689;48.590;7.752;2024-03-08T10:55:46;14.10;52.20
25871;DHT22;13689;48.590;7.752;2024-03-08T10:58:12;13.40;52.80
25871;DHT22;13689;48.590;7.752;2024-03-08T11:00:38;12.70;53.60
25871;DHT22;13689;48.590;7.752;2024-03-08T11:03:04;12.40;54.60
25871;DHT22;13689;48.590;7.752;2024-03-08T11:05:40;12.20;54.80
25871;DHT22;13689;48.590;7.752;2024-03-08T11:10:53;11.60;55.80
25871;DHT22;13689;48.590;7.752;2024-03-08T11:13:42;11.50;56.40
25871;DHT22;13689;48.590;7.752;2024-03-08T11:16:12;11.30;56.80
25871;DHT22;13689;48.590;7.752;2024-03-08T11:18:38;11.20;57.70
25871;DHT22;13689;48.590;7.752;2024-03-08T11:21:05;11.10;57.30
25871;DHT22;13689;48.590;7.752;2024-03-08T11:23:37;11.20;57.50
25871;DHT22;13689;48.590;7.752;2024-03-08T11:26:04;11.20;57.20
25871;DHT22;13689;48.590;7.752;2024-03-08T11:49:15;10.90;58.50
25871;DHT22;13689;48.590;7.752;2024-03-08T11:51:41;10.90;58.30
25871;DHT22;13689;48.590;7.752;2024-03-08T11:54:11;10.80;58.50
25871;DHT22;13689;48.590;7.752;2024-03-08T11:56:40;10.80;58.70
25871;DHT22;13689;48.590;7.752;2024-03-08T11:59:11;10.80;58.70
25871;DHT22;13689;48.590;7.752;2024-03-08T12:01:38;10.80;58.70
25871;DHT22;13689;48.590;7.752;2024-03-08T12:04:04;10.70;59.00
25871;DHT22;13689;48.590;7.752;2024-03-08T12:06:40;10.80;59.10
25871;DHT22;13689;48.590;7.752;2024-03-08T12:09:10;10.80;58.90
25871;DHT22;13689;48.590;7.752;2024-03-08T12:11:36;10.90;58.90
25871;DHT22;13689;48.590;7.752;2024-03-08T12:14:03;10.80;58.70
25871;DHT22;13689;48.590;7.752;2024-03-08T12:16:28;10.80;58.70
25871;DHT22;13689;48.590;7.752;2024-03-08T12:18:54;10.80;59.00
25871;DHT22;13689;48.590;7.752;2024-03-08T12:21:20;10.90;59.10
25871;DHT22;13689;48.590;7.752;2024-03-08T12:23:47;10.90;59.10
25871;DHT22;13689;48.590;7.752;2024-03-08T12:26:17;11.00;59.20
25871;DHT22;13689;48.590;7.752;2024-03-08T12:28:44;11.00;59.20
25871;DHT22;13689;48.590;7.752;2024-03-08T12:31:14;11.00;59.30
25871;DHT22;13689;48.590;7.752;2024-03-08T12:36:16;11.00;59.50
25871;DHT22;13689;48.590;7.752;2024-03-08T12:38:45;11.00;59.60
25871;DHT22;13689;48.590;7.752;2024-03-08T12:41:17;11.10;59.60
25871;DHT22;13689;48.590;7.752;2024-03-08T12:43:43;11.10;59.40
25871;DHT22;13689;48.590;7.752;2024-03-08T12:46:14;11.10;59.60
25871;DHT22;13689;48.590;7.752;2024-03-08T12:48:40;11.10;59.90
25871;DHT22;13689;48.590;7.752;2024-03-08T12:51:09;11.00;59.90
25871;DHT22;13689;48.590;7.752;2024-03-08T12:53:35;11.10;60.10
25871;DHT22;13689;48.590;7.752;2024-03-08T12:56:01;11.00;60.10
25871;DHT22;13689;48.590;7.752;2024-03-08T12:58:27;11.00;60.50
25871;DHT22;13689;48.590;7.752;2024-03-08T13:00:52;11.00;60.60
25871;DHT22;13689;48.590;7.752;2024-03-08T13:03:18;11.10;60.80
25871;DHT22;13689;48.590;7.752;2024-03-08T13:05:44;11.10;60.70
25871;DHT22;13689;48.590;7.752;2024-03-08T13:08:09;11.10;60.90
25871;DHT22;13689;48.590;7.752;2024-03-08T13:10:41;11.10;61.00
25871;DHT22;13689;48.590;7.752;2024-03-08T13:13:09;11.10;61.20
25871;DHT22;13689;48.590;7.752;2024-03-08T13:15:35;11.10;61.10
25871;DHT22;13689;48.590;7.752;2024-03-08T13:18:01;11.10;60.90
25871;DHT22;13689;48.590;7.752;2024-03-08T13:20:27;11.10;61.00
25871;DHT22;13689;48.590;7.752;2024-03-08T13:22:54;11.10;61.30
25871;DHT22;13689;48.590;7.752;2024-03-08T13:25:20;11.20;61.40
25871;DHT22;13689;48.590;7.752;2024-03-08T13:27:46;11.20;61.40
25871;DHT22;13689;48.590;7.752;2024-03-08T13:30:13;11.20;61.30
25871;DHT22;13689;48.590;7.752;2024-03-08T13:32:42;11.20;61.60
25871;DHT22;13689;48.590;7.752;2024-03-08T13:35:11;11.30;61.60
25871;DHT22;13689;48.590;7.752;2024-03-08T13:37:41;11.30;61.70
25871;DHT22;13689;48.590;7.752;2024-03-08T13:40:09;11.30;61.50
25871;DHT22;13689;48.590;7.752;2024-03-08T13:42:39;11.20;61.70
25871;DHT22;13689;48.590;7.752;2024-03-08T13:45:08;11.20;61.80
25871;DHT22;13689;48.590;7.752;2024-03-08T13:47:36;11.20;61.90
25871;DHT22;13689;48.590;7.752;2024-03-08T13:50:02;11.20;61.80
25871;DHT22;13689;48.590;7.752;2024-03-08T13:52:29;11.20;62.00
25871;DHT22;13689;48.590;7.752;2024-03-08T13:54:55;11.20;61.90
25871;DHT22;13689;48.590;7.752;2024-03-08T13:57:21;11.10;61.70
25871;DHT22;13689;48.590;7.752;2024-03-08T13:59:48;11.10;61.70
25871;DHT22;13689;48.590;7.752;2024-03-08T14:02:16;11.10;62.00
25871;DHT22;13689;48.590;7.752;2024-03-08T14:04:42;11.10;62.00
25871;DHT22;13689;48.590;7.752;2024-03-08T14:07:08;11.20;63.00
25871;DHT22;13689;48.590;7.752;2024-03-08T14:09:34;11.20;62.10
25871;DHT22;13689;48.590;7.752;2024-03-08T14:12:03;11.20;62.10
25871;DHT22;13689;48.590;7.752;2024-03-08T14:14:33;11.20;62.20
25871;DHT22;13689;48.590;7.752;2024-03-08T14:17:00;11.20;62.10
25871;DHT22;13689;48.590;7.752;2024-03-08T14:19:28;11.20;62.10
25871;DHT22;13689;48.590;7.752;2024-03-08T14:21:53;11.20;62.10
25871;DHT22;13689;48.590;7.752;2024-03-08T14:24:19;11.20;62.50
25871;DHT22;13689;48.590;7.752;2024-03-08T14:26:45;11.20;62.20
25871;DHT22;13689;48.590;7.752;2024-03-08T14:29:14;11.20;62.40
25871;DHT22;13689;48.590;7.752;2024-03-08T14:31:40;11.10;62.30
25871;DHT22;13689;48.590;7.752;2024-03-08T14:34:07;11.10;62.40
25871;DHT22;13689;48.590;7.752;2024-03-08T14:36:33;11.10;62.40
25871;DHT22;13689;48.590;7.752;2024-03-08T14:38:58;11.10;62.40
25871;DHT22;13689;48.590;7.752;2024-03-08T14:41:24;11.10;62.30
25871;DHT22;13689;48.590;7.752;2024-03-08T14:43:49;11.10;62.30
25871;DHT22;13689;48.590;7.752;2024-03-08T14:46:18;11.10;62.30
25871;DHT22;13689;48.590;7.752;2024-03-08T14:48:46;11.00;62.30
25871;DHT22;13689;48.590;7.752;2024-03-08T14:51:13;11.00;62.40
25871;DHT22;13689;48.590;7.752;2024-03-08T14:53:43;11.00;62.50
25871;DHT22;13689;48.590;7.752;2024-03-08T14:56:11;11.10;62.60
25871;DHT22;13689;48.590;7.752;2024-03-08T14:58:42;11.00;62.50
25871;DHT22;13689;48.590;7.752;2024-03-08T15:01:12;11.00;62.60
25871;DHT22;13689;48.590;7.752;2024-03-08T15:03:41;11.00;62.70
25871;DHT22;13689;48.590;7.752;2024-03-08T15:06:10;10.90;62.70
25871;DHT22;13689;48.590;7.752;2024-03-08T15:08:39;10.90;62.60
25871;DHT22;13689;48.590;7.752;2024-03-08T15:11:05;10.90;62.60
25871;DHT22;13689;48.590;7.752;2024-03-08T15:13:34;10.90;62.70
25871;DHT22;13689;48.590;7.752;2024-03-08T15:16:09;10.90;63.00
25871;DHT22;13689;48.590;7.752;2024-03-08T15:18:40;10.90;63.10
25871;DHT22;13689;48.590;7.752;2024-03-08T15:21:06;10.90;63.00
25871;DHT22;13689;48.590;7.752;2024-03-08T15:23:36;10.80;62.70
25871;DHT22;13689;48.590;7.752;2024-03-08T15:26:02;10.80;62.80
25871;DHT22;13689;48.590;7.752;2024-03-08T15:28:29;10.70;63.00
25871;DHT22;13689;48.590;7.752;2024-03-08T15:31:17;10.70;63.00
25871;DHT22;13689;48.590;7.752;2024-03-08T15:33:44;10.70;63.10
25871;DHT22;13689;48.590;7.752;2024-03-08T15:36:18;10.70;63.30
25871;DHT22;13689;48.590;7.752;2024-03-08T15:38:46;10.70;63.40
25871;DHT22;13689;48.590;7.752;2024-03-08T15:41:12;10.60;63.10
25871;DHT22;13689;48.590;7.752;2024-03-08T15:43:39;10.60;63.10
25871;DHT22;13689;48.590;7.752;2024-03-08T15:46:06;10.60;63.30
25871;DHT22;13689;48.590;7.752;2024-03-08T15:48:33;10.50;63.00
25871;DHT22;13689;48.590;7.752;2024-03-08T15:51:01;10.50;63.30
25871;DHT22;13689;48.590;7.752;2024-03-08T15:53:28;10.50;63.40
25871;DHT22;13689;48.590;7.752;2024-03-08T15:55:57;10.40;63.30
25871;DHT22;13689;48.590;7.752;2024-03-08T15:58:24;10.40;63.50
25871;DHT22;13689;48.590;7.752;2024-03-08T16:00:50;10.40;63.50
25871;DHT22;13689;48.590;7.752;2024-03-08T16:03:18;10.40;63.50
25871;DHT22;13689;48.590;7.752;2024-03-08T16:05:44;10.40;63.60
25871;DHT22;13689;48.590;7.752;2024-03-08T16:08:15;10.40;63.80